sensor_id;sensor_type;location;lat;lon;timestamp;P1;durP1;ratioP1;P2;durP2;ratioP2
76051;SDS011;64751;48.708;9.710;2022-11-13T00:02:05;1.15;;;0.95;;
76051;SDS011;64751;48.708;9.710;2022-11-13T00:04:51;1.08;;;0.98;;
76051;SDS011;64751;48.708;9.710;2022-11-13T00:07:38;0.80;;;0.80;;
76051;SDS011;64751;48.708;9.710;2022-11-13T00:10:24;0.82;;;0.82;;
76051;SDS011;64751;48.708;9.710;2022-11-13T00:13:11;0.90;;;0.90;;
76051;SDS011;64751;48.708;9.710;2022-11-13T00:15:58;0.80;;;0.73;;
76051;SDS011;64751;48.708;9.710;2022-11-13T00:18:45;0.90;;;0.90;;
76051;SDS011;64751;48.708;9.710;2022-11-13T00:21:31;0.63;;;0.63;;
76051;SDS011;64751;48.708;9.710;2022-11-13T00:24:19;0.90;;;0.90;;
76051;SDS011;64751;48.708;9.710;2022-11-13T00:27:05;0.80;;;0.80;;
76051;SDS011;64751;48.708;9.710;2022-11-13T00:29:52;0.82;;;0.73;;
76051;SDS011;64751;48.708;9.710;2022-11-13T00:32:38;0.70;;;0.70;;
76051;SDS011;64751;48.708;9.710;2022-11-13T00:35:25;0.90;;;0.90;;
76051;SDS011;64751;48.708;9.710;2022-11-13T00:38:11;0.73;;;0.73;;
76051;SDS011;64751;48.708;9.710;2022-11-13T00:40:58;0.82;;;0.80;;
76051;SDS011;64751;48.708;9.710;2022-11-13T00:43:45;0.88;;;0.85;;
76051;SDS011;64751;48.708;9.710;2022-11-13T00:46:31;1.00;;;0.90;;
76051;SDS011;64751;48.708;9.710;2022-11-13T00:49:17;1.27;;;0.85;;
76051;SDS011;64751;48.708;9.710;2022-11-13T00:52:03;1.27;;;0.90;;
76051;SDS011;64751;48.708;9.710;2022-11-13T00:54:49;0.80;;;0.80;;
76051;SDS011;64751;48.708;9.710;2022-11-13T00:57:36;0.93;;;0.93;;
76051;SDS011;64751;48.708;9.710;2022-11-13T01:00:22;1.00;;;0.90;;
76051;SDS011;64751;48.708;9.710;2022-11-13T01:03:08;1.05;;;0.95;;
76051;SDS011;64751;48.708;9.710;2022-11-13T01:05:54;0.88;;;0.80;;
76051;SDS011;64751;48.708;9.710;2022-11-13T01:08:41;0.90;;;0.80;;
76051;SDS011;64751;48.708;9.710;2022-11-13T01:11:27;0.90;;;0.85;;
76051;SDS011;64751;48.708;9.710;2022-11-13T01:14:16;1.00;;;0.88;;
76051;SDS011;64751;48.708;9.710;2022-11-13T01:17:02;0.80;;;0.80;;
76051;SDS011;64751;48.708;9.710;2022-11-13T01:19:48;0.80;;;0.80;;
76051;SDS011;64751;48.708;9.710;2022-11-13T01:22:34;1.00;;;0.90;;
76051;SDS011;64751;48.708;9.710;2022-11-13T01:25:20;1.10;;;0.98;;
76051;SDS011;64751;48.708;9.710;2022-11-13T01:28:06;1.00;;;0.90;;
76051;SDS011;64751;48.708;9.710;2022-11-13T01:30:54;0.70;;;0.70;;
76051;SDS011;64751;48.708;9.710;2022-11-13T01:33:40;0.90;;;0.90;;
76051;SDS011;64751;48.708;9.710;2022-11-13T01:36:26;0.93;;;0.90;;
76051;SDS011;64751;48.708;9.710;2022-11-13T01:39:13;0.88;;;0.85;;
76051;SDS011;64751;48.708;9.710;2022-11-13T01:41:59;1.27;;;0.90;;
76051;SDS011;64751;48.708;9.710;2022-11-13T01:44:47;1.25;;;0.98;;
76051;SDS011;64751;48.708;9.710;2022-11-13T01:47:36;0.98;;;0.90;;
76051;SDS011;64751;48.708;9.710;2022-11-13T01:50:22;1.08;;;0.98;;
76051;SDS011;64751;48.708;9.710;2022-11-13T01:53:08;1.10;;;0.90;;
76051;SDS011;64751;48.708;9.710;2022-11-13T01:55:54;1.17;;;1.08;;
76051;SDS011;64751;48.708;9.710;2022-11-13T01:58:41;1.00;;;0.90;;
76051;SDS011;64751;48.708;9.710;2022-11-13T02:01:31;1.10;;;1.00;;
76051;SDS011;64751;48.708;9.710;2022-11-13T02:04:19;1.02;;;0.90;;
76051;SDS011;64751;48.708;9.710;2022-11-13T02:07:06;1.00;;;0.90;;
76051;SDS011;64751;48.708;9.710;2022-11-13T02:09:54;0.90;;;0.85;;
76051;SDS011;64751;48.708;9.710;2022-11-13T02:12:42;1.20;;;1.10;;
76051;SDS011;64751;48.708;9.710;2022-11-13T02:15:32;0.70;;;0.70;;
76051;SDS011;64751;48.708;9.710;2022-11-13T02:18:20;1.42;;;1.20;;
76051;SDS011;64751;48.708;9.710;2022-11-13T02:21:11;0.90;;;0.75;;
76051;SDS011;64751;48.708;9.710;2022-11-13T02:24:18;0.80;;;0.80;;
76051;SDS011;64751;48.708;9.710;2022-11-13T02:27:09;1.50;;;1.00;;
76051;SDS011;64751;48.708;9.710;2022-11-13T02:30:09;1.05;;;0.80;;
76051;SDS011;64751;48.708;9.710;2022-11-13T02:32:57;1.50;;;1.20;;
76051;SDS011;64751;48.708;9.710;2022-11-13T02:35:43;1.25;;;1.00;;
76051;SDS011;64751;48.708;9.710;2022-11-13T02:38:30;1.65;;;1.38;;
76051;SDS011;64751;48.708;9.710;2022-11-13T02:41:19;1.90;;;1.45;;
76051;SDS011;64751;48.708;9.710;2022-11-13T02:44:06;1.35;;;1.20;;
76051;SDS011;64751;48.708;9.710;2022-11-13T02:46:52;1.30;;;1.20;;
76051;SDS011;64751;48.708;9.710;2022-11-13T02:49:38;1.35;;;1.20;;
76051;SDS011;64751;48.708;9.710;2022-11-13T02:52:24;1.30;;;1.17;;
76051;SDS011;64751;48.708;9.710;2022-11-13T02:55:11;1.50;;;1.27;;
76051;SDS011;64751;48.708;9.710;2022-11-13T02:57:58;1.63;;;1.40;;
76051;SDS011;64751;48.708;9.710;2022-11-13T03:00:44;1.35;;;1.25;;
76051;SDS011;64751;48.708;9.710;2022-11-13T03:03:30;1.33;;;1.20;;
76051;SDS011;64751;48.708;9.710;2022-11-13T03:06:16;1.35;;;1.25;;
76051;SDS011;64751;48.708;9.710;2022-11-13T03:09:02;1.80;;;1.40;;
76051;SDS011;64751;48.708;9.710;2022-11-13T03:11:48;1.75;;;1.48;;
76051;SDS011;64751;48.708;9.710;2022-11-13T03:14:36;1.88;;;1.38;;
76051;SDS011;64751;48.708;9.710;2022-11-13T03:17:22;2.70;;;1.70;;
76051;SDS011;64751;48.708;9.710;2022-11-13T03:20:08;1.83;;;1.52;;
76051;SDS011;64751;48.708;9.710;2022-11-13T03:22:54;2.33;;;1.80;;
76051;SDS011;64751;48.708;9.710;2022-11-13T03:25:40;2.33;;;1.55;;
76051;SDS011;64751;48.708;9.710;2022-11-13T03:28:26;1.75;;;1.52;;
76051;SDS011;64751;48.708;9.710;2022-11-13T03:31:14;2.30;;;1.60;;
76051;SDS011;64751;48.708;9.710;2022-11-13T03:34:00;2.20;;;1.70;;
76051;SDS011;64751;48.708;9.710;2022-11-13T03:36:47;2.30;;;1.83;;
76051;SDS011;64751;48.708;9.710;2022-11-13T03:39:32;2.47;;;1.80;;
76051;SDS011;64751;48.708;9.710;2022-11-13T03:42:18;2.45;;;1.98;;
76051;SDS011;64751;48.708;9.710;2022-11-13T03:45:04;2.20;;;1.83;;
76051;SDS011;64751;48.708;9.710;2022-11-13T03:47:53;2.30;;;2.10;;
76051;SDS011;64751;48.708;9.710;2022-11-13T03:50:39;2.78;;;2.13;;
76051;SDS011;64751;48.708;9.710;2022-11-13T03:53:26;2.58;;;2.38;;
76051;SDS011;64751;48.708;9.710;2022-11-13T03:56:13;2.50;;;2.10;;
76051;SDS011;64751;48.708;9.710;2022-11-13T03:58:59;2.55;;;2.35;;
76051;SDS011;64751;48.708;9.710;2022-11-13T04:01:45;2.70;;;2.25;;
76051;SDS011;64751;48.708;9.710;2022-11-13T04:04:32;2.58;;;2.15;;
76051;SDS011;64751;48.708;9.710;2022-11-13T04:07:18;3.28;;;2.50;;
76051;SDS011;64751;48.708;9.710;2022-11-13T04:10:04;3.55;;;2.58;;
76051;SDS011;64751;48.708;9.710;2022-11-13T04:12:51;2.72;;;2.50;;
76051;SDS011;64751;48.708;9.710;2022-11-13T04:15:37;2.78;;;2.25;;
76051;SDS011;64751;48.708;9.710;2022-11-13T04:18:23;2.60;;;2.38;;
76051;SDS011;64751;48.708;9.710;2022-11-13T04:21:10;3.42;;;2.75;;
76051;SDS011;64751;48.708;9.710;2022-11-13T04:23:56;3.30;;;2.83;;
76051;SDS011;64751;48.708;9.710;2022-11-13T04:26:42;3.38;;;2.63;;
76051;SDS011;64751;48.708;9.710;2022-11-13T04:29:28;3.35;;;2.88;;
76051;SDS011;64751;48.708;9.710;2022-11-13T04:32:15;3.83;;;3.05;;
76051;SDS011;64751;48.708;9.710;2022-11-13T04:35:01;3.25;;;2.65;;
76051;SDS011;64751;48.708;9.710;2022-11-13T04:37:49;3.53;;;2.90;;
76051;SDS011;64751;48.708;9.710;2022-11-13T04:40:34;3.17;;;2.67;;
76051;SDS011;64751;48.708;9.710;2022-11-13T04:43:21;3.45;;;2.75;;
76051;SDS011;64751;48.708;9.710;2022-11-13T04:46:06;3.20;;;2.80;;
76051;SDS011;64751;48.708;9.710;2022-11-13T04:48:52;3.45;;;2.70;;
76051;SDS011;64751;48.708;9.710;2022-11-13T04:51:38;3.80;;;2.67;;
76051;SDS011;64751;48.708;9.710;2022-11-13T04:54:26;3.00;;;2.70;;
76051;SDS011;64751;48.708;9.710;2022-11-13T04:57:12;3.42;;;2.72;;
76051;SDS011;64751;48.708;9.710;2022-11-13T04:59:58;3.13;;;2.72;;
76051;SDS011;64751;48.708;9.710;2022-11-13T05:02:44;3.33;;;2.78;;
76051;SDS011;64751;48.708;9.710;2022-11-13T05:05:30;3.13;;;2.60;;
76051;SDS011;64751;48.708;9.710;2022-11-13T05:08:16;3.22;;;2.67;;
76051;SDS011;64751;48.708;9.710;2022-11-13T05:11:04;3.08;;;2.38;;
76051;SDS011;64751;48.708;9.710;2022-11-13T05:13:50;3.13;;;2.65;;
76051;SDS011;64751;48.708;9.710;2022-11-13T05:16:36;2.90;;;2.40;;
76051;SDS011;64751;48.708;9.710;2022-11-13T05:19:22;3.25;;;2.65;;
76051;SDS011;64751;48.708;9.710;2022-11-13T05:22:08;2.67;;;2.08;;
76051;SDS011;64751;48.708;9.710;2022-11-13T05:24:54;3.80;;;2.65;;
76051;SDS011;64751;48.708;9.710;2022-11-13T05:27:42;3.33;;;2.50;;
76051;SDS011;64751;48.708;9.710;2022-11-13T05:30:28;2.90;;;2.40;;
76051;SDS011;64751;48.708;9.710;2022-11-13T05:33:14;2.67;;;2.28;;
76051;SDS011;64751;48.708;9.710;2022-11-13T05:36:00;2.72;;;2.28;;
76051;SDS011;64751;48.708;9.710;2022-11-13T05:38:47;2.63;;;2.03;;
76051;SDS011;64751;48.708;9.710;2022-11-13T05:41:34;3.10;;;2.55;;
76051;SDS011;64751;48.708;9.710;2022-11-13T05:44:21;2.92;;;2.30;;
76051;SDS011;64751;48.708;9.710;2022-11-13T05:47:07;3.22;;;2.30;;
76051;SDS011;64751;48.708;9.710;2022-11-13T05:49:53;2.72;;;2.10;;
76051;SDS011;64751;48.708;9.710;2022-11-13T05:52:39;3.10;;;2.50;;
76051;SDS011;64751;48.708;9.710;2022-11-13T05:55:25;3.25;;;2.42;;
76051;SDS011;64751;48.708;9.710;2022-11-13T05:58:12;3.67;;;2.55;;
76051;SDS011;64751;48.708;9.710;2022-11-13T06:01:06;2.50;;;2.20;;
76051;SDS011;64751;48.708;9.710;2022-11-13T06:03:54;3.17;;;2.25;;
76051;SDS011;64751;48.708;9.710;2022-11-13T06:06:42;2.88;;;2.25;;
76051;SDS011;64751;48.708;9.710;2022-11-13T06:09:28;4.35;;;3.22;;
76051;SDS011;64751;48.708;9.710;2022-11-13T06:12:14;3.58;;;2.20;;
76051;SDS011;64751;48.708;9.710;2022-11-13T06:15:01;2.60;;;2.00;;
76051;SDS011;64751;48.708;9.710;2022-11-13T06:17:48;2.10;;;1.80;;
76051;SDS011;64751;48.708;9.710;2022-11-13T06:20:34;2.30;;;1.90;;
76051;SDS011;64751;48.708;9.710;2022-11-13T06:23:20;2.20;;;1.70;;
76051;SDS011;64751;48.708;9.710;2022-11-13T06:26:08;2.55;;;1.77;;
76051;SDS011;64751;48.708;9.710;2022-11-13T06:28:55;1.75;;;1.45;;
76051;SDS011;64751;48.708;9.710;2022-11-13T06:31:41;1.98;;;1.73;;
76051;SDS011;64751;48.708;9.710;2022-11-13T06:34:29;2.03;;;1.80;;
76051;SDS011;64751;48.708;9.710;2022-11-13T06:37:15;1.85;;;1.48;;
76051;SDS011;64751;48.708;9.710;2022-11-13T06:40:02;1.90;;;1.60;;
76051;SDS011;64751;48.708;9.710;2022-11-13T06:42:48;1.83;;;1.52;;
76051;SDS011;64751;48.708;9.710;2022-11-13T06:45:34;1.50;;;1.30;;
76051;SDS011;64751;48.708;9.710;2022-11-13T06:48:20;1.85;;;1.50;;
76051;SDS011;64751;48.708;9.710;2022-11-13T06:51:10;1.55;;;1.45;;
76051;SDS011;64751;48.708;9.710;2022-11-13T06:53:59;1.60;;;1.20;;
76051;SDS011;64751;48.708;9.710;2022-11-13T06:56:45;2.13;;;1.67;;
76051;SDS011;64751;48.708;9.710;2022-11-13T06:59:31;1.50;;;1.30;;
76051;SDS011;64751;48.708;9.710;2022-11-13T07:02:17;2.28;;;1.40;;
76051;SDS011;64751;48.708;9.710;2022-11-13T07:05:03;1.67;;;1.48;;
76051;SDS011;64751;48.708;9.710;2022-11-13T07:07:51;1.67;;;1.35;;
76051;SDS011;64751;48.708;9.710;2022-11-13T07:10:37;1.77;;;1.50;;
76051;SDS011;64751;48.708;9.710;2022-11-13T07:13:24;2.17;;;1.60;;
76051;SDS011;64751;48.708;9.710;2022-11-13T07:16:12;1.52;;;1.33;;
76051;SDS011;64751;48.708;9.710;2022-11-13T07:18:59;1.80;;;1.48;;
76051;SDS011;64751;48.708;9.710;2022-11-13T07:21:45;1.67;;;1.48;;
76051;SDS011;64751;48.708;9.710;2022-11-13T07:24:32;1.83;;;1.63;;
76051;SDS011;64751;48.708;9.710;2022-11-13T07:27:18;2.67;;;1.52;;
76051;SDS011;64751;48.708;9.710;2022-11-13T07:30:05;1.73;;;1.42;;
76051;SDS011;64751;48.708;9.710;2022-11-13T07:32:52;1.45;;;1.23;;
76051;SDS011;64751;48.708;9.710;2022-11-13T07:35:38;1.77;;;1.40;;
76051;SDS011;64751;48.708;9.710;2022-11-13T07:38:24;1.42;;;1.27;;
76051;SDS011;64751;48.708;9.710;2022-11-13T07:41:11;1.85;;;1.50;;
76051;SDS011;64751;48.708;9.710;2022-11-13T07:43:57;1.58;;;1.33;;
76051;SDS011;64751;48.708;9.710;2022-11-13T07:46:43;1.77;;;1.45;;
76051;SDS011;64751;48.708;9.710;2022-11-13T07:49:29;1.83;;;1.50;;
76051;SDS011;64751;48.708;9.710;2022-11-13T07:52:16;1.58;;;1.30;;
76051;SDS011;64751;48.708;9.710;2022-11-13T07:55:02;1.60;;;1.40;;
76051;SDS011;64751;48.708;9.710;2022-11-13T07:57:49;1.77;;;1.58;;
76051;SDS011;64751;48.708;9.710;2022-11-13T08:00:36;1.65;;;1.30;;
76051;SDS011;64751;48.708;9.710;2022-11-13T08:03:22;1.88;;;1.50;;
76051;SDS011;64751;48.708;9.710;2022-11-13T08:06:08;1.90;;;1.48;;
76051;SDS011;64751;48.708;9.710;2022-11-13T08:08:54;1.70;;;1.38;;
76051;SDS011;64751;48.708;9.710;2022-11-13T08:11:40;1.85;;;1.48;;
76051;SDS011;64751;48.708;9.710;2022-11-13T08:14:28;1.70;;;1.30;;
76051;SDS011;64751;48.708;9.710;2022-11-13T08:17:14;1.70;;;1.35;;
76051;SDS011;64751;48.708;9.710;2022-11-13T08:20:00;2.40;;;2.00;;
76051;SDS011;64751;48.708;9.710;2022-11-13T08:22:47;1.77;;;1.63;;
76051;SDS011;64751;48.708;9.710;2022-11-13T08:25:34;2.50;;;1.90;;
76051;SDS011;64751;48.708;9.710;2022-11-13T08:28:21;2.50;;;1.95;;
76051;SDS011;64751;48.708;9.710;2022-11-13T08:31:10;2.78;;;2.30;;
76051;SDS011;64751;48.708;9.710;2022-11-13T08:33:58;2.53;;;2.33;;
76051;SDS011;64751;48.708;9.710;2022-11-13T08:36:44;2.58;;;2.38;;
76051;SDS011;64751;48.708;9.710;2022-11-13T08:39:32;2.70;;;2.50;;
76051;SDS011;64751;48.708;9.710;2022-11-13T08:42:18;2.92;;;2.50;;
76051;SDS011;64751;48.708;9.710;2022-11-13T08:45:05;2.85;;;2.13;;
76051;SDS011;64751;48.708;9.710;2022-11-13T08:47:53;2.50;;;2.22;;
76051;SDS011;64751;48.708;9.710;2022-11-13T08:50:44;2.28;;;2.00;;
76051;SDS011;64751;48.708;9.710;2022-11-13T08:53:30;2.53;;;2.20;;
76051;SDS011;64751;48.708;9.710;2022-11-13T08:56:16;2.58;;;2.20;;
76051;SDS011;64751;48.708;9.710;2022-11-13T08:59:03;2.30;;;1.95;;
76051;SDS011;64751;48.708;9.710;2022-11-13T09:01:49;2.13;;;1.85;;
76051;SDS011;64751;48.708;9.710;2022-11-13T09:04:43;2.15;;;1.67;;
76051;SDS011;64751;48.708;9.710;2022-11-13T09:07:29;2.20;;;1.65;;
76051;SDS011;64751;48.708;9.710;2022-11-13T09:10:16;2.28;;;1.67;;
76051;SDS011;64751;48.708;9.710;2022-11-13T09:13:04;2.55;;;2.00;;
76051;SDS011;64751;48.708;9.710;2022-11-13T09:15:52;1.58;;;1.40;;
76051;SDS011;64751;48.708;9.710;2022-11-13T09:18:38;1.95;;;1.55;;
76051;SDS011;64751;48.708;9.710;2022-11-13T09:21:25;2.47;;;1.70;;
76051;SDS011;64751;48.708;9.710;2022-11-13T09:24:12;2.08;;;1.63;;
76051;SDS011;64751;48.708;9.710;2022-11-13T09:26:58;2.10;;;1.60;;
76051;SDS011;64751;48.708;9.710;2022-11-13T09:29:45;2.03;;;1.60;;
76051;SDS011;64751;48.708;9.710;2022-11-13T09:32:31;1.60;;;1.40;;
76051;SDS011;64751;48.708;9.710;2022-11-13T09:35:17;1.95;;;1.35;;
76051;SDS011;64751;48.708;9.710;2022-11-13T09:38:18;1.30;;;1.20;;
76051;SDS011;64751;48.708;9.710;2022-11-13T09:41:05;2.22;;;1.30;;
76051;SDS011;64751;48.708;9.710;2022-11-13T09:43:55;1.35;;;1.10;;
76051;SDS011;64751;48.708;9.710;2022-11-13T09:46:46;0.90;;;0.80;;
76051;SDS011;64751;48.708;9.710;2022-11-13T09:49:37;1.67;;;1.20;;
76051;SDS011;64751;48.708;9.710;2022-11-13T09:52:31;1.63;;;1.30;;
76051;SDS011;64751;48.708;9.710;2022-11-13T09:55:27;1.42;;;1.20;;
76051;SDS011;64751;48.708;9.710;2022-11-13T09:58:24;1.33;;;1.10;;
76051;SDS011;64751;48.708;9.710;2022-11-13T10:01:15;1.63;;;1.30;;
76051;SDS011;64751;48.708;9.710;2022-11-13T10:04:09;1.60;;;1.00;;
76051;SDS011;64751;48.708;9.710;2022-11-13T10:07:00;1.52;;;1.00;;
76051;SDS011;64751;48.708;9.710;2022-11-13T10:10:00;1.20;;;1.00;;
76051;SDS011;64751;48.708;9.710;2022-11-13T10:12:51;1.58;;;1.23;;
76051;SDS011;64751;48.708;9.710;2022-11-13T10:15:42;1.27;;;1.00;;
76051;SDS011;64751;48.708;9.710;2022-11-13T10:18:32;1.77;;;1.40;;
76051;SDS011;64751;48.708;9.710;2022-11-13T10:21:24;1.80;;;1.30;;
76051;SDS011;64751;48.708;9.710;2022-11-13T10:24:16;1.92;;;1.38;;
76051;SDS011;64751;48.708;9.710;2022-11-13T10:27:12;1.83;;;1.35;;
76051;SDS011;64751;48.708;9.710;2022-11-13T10:30:01;1.40;;;1.20;;
76051;SDS011;64751;48.708;9.710;2022-11-13T10:32:48;1.77;;;1.15;;
76051;SDS011;64751;48.708;9.710;2022-11-13T10:35:42;1.85;;;1.50;;
76051;SDS011;64751;48.708;9.710;2022-11-13T10:38:34;1.98;;;1.60;;
76051;SDS011;64751;48.708;9.710;2022-11-13T10:41:25;1.90;;;1.40;;
76051;SDS011;64751;48.708;9.710;2022-11-13T10:44:17;2.03;;;1.50;;
76051;SDS011;64751;48.708;9.710;2022-11-13T10:47:12;2.03;;;1.63;;
76051;SDS011;64751;48.708;9.710;2022-11-13T10:50:07;2.10;;;1.70;;
76051;SDS011;64751;48.708;9.710;2022-11-13T10:52:55;1.98;;;1.60;;
76051;SDS011;64751;48.708;9.710;2022-11-13T10:55:42;2.65;;;1.98;;
76051;SDS011;64751;48.708;9.710;2022-11-13T10:58:29;2.78;;;2.47;;
76051;SDS011;64751;48.708;9.710;2022-11-13T11:01:18;2.33;;;1.80;;
76051;SDS011;64751;48.708;9.710;2022-11-13T11:04:12;3.17;;;1.88;;
76051;SDS011;64751;48.708;9.710;2022-11-13T11:07:13;3.08;;;2.20;;
76051;SDS011;64751;48.708;9.710;2022-11-13T11:10:00;2.67;;;2.20;;
76051;SDS011;64751;48.708;9.710;2022-11-13T11:12:50;2.67;;;2.28;;
76051;SDS011;64751;48.708;9.710;2022-11-13T11:15:38;3.28;;;2.47;;
76051;SDS011;64751;48.708;9.710;2022-11-13T11:18:29;3.13;;;2.50;;
76051;SDS011;64751;48.708;9.710;2022-11-13T11:21:22;2.80;;;2.40;;
76051;SDS011;64751;48.708;9.710;2022-11-13T11:24:17;3.40;;;2.50;;
76051;SDS011;64751;48.708;9.710;2022-11-13T11:27:12;2.85;;;2.35;;
76051;SDS011;64751;48.708;9.710;2022-11-13T11:30:11;2.63;;;2.10;;
76051;SDS011;64751;48.708;9.710;2022-11-13T11:33:03;3.17;;;2.40;;
76051;SDS011;64751;48.708;9.710;2022-11-13T11:35:58;2.95;;;2.42;;
76051;SDS011;64751;48.708;9.710;2022-11-13T11:38:51;3.45;;;2.42;;
76051;SDS011;64751;48.708;9.710;2022-11-13T11:41:42;3.72;;;2.40;;
76051;SDS011;64751;48.708;9.710;2022-11-13T11:44:36;3.20;;;2.40;;
76051;SDS011;64751;48.708;9.710;2022-11-13T11:47:27;2.97;;;2.50;;
76051;SDS011;64751;48.708;9.710;2022-11-13T11:50:14;3.63;;;2.63;;
76051;SDS011;64751;48.708;9.710;2022-11-13T11:53:03;2.58;;;2.38;;
76051;SDS011;64751;48.708;9.710;2022-11-13T11:56:05;2.72;;;2.38;;
76051;SDS011;64751;48.708;9.710;2022-11-13T11:59:05;2.78;;;2.08;;
76051;SDS011;64751;48.708;9.710;2022-11-13T12:02:01;2.92;;;2.10;;
76051;SDS011;64751;48.708;9.710;2022-11-13T12:05:16;2.38;;;2.17;;
76051;SDS011;64751;48.708;9.710;2022-11-13T12:08:08;2.88;;;2.40;;
76051;SDS011;64751;48.708;9.710;2022-11-13T12:11:09;2.33;;;1.95;;
76051;SDS011;64751;48.708;9.710;2022-11-13T12:14:05;2.17;;;1.88;;
76051;SDS011;64751;48.708;9.710;2022-11-13T12:17:05;2.78;;;2.30;;
76051;SDS011;64751;48.708;9.710;2022-11-13T12:20:06;2.42;;;1.88;;
76051;SDS011;64751;48.708;9.710;2022-11-13T12:23:07;2.15;;;1.67;;
76051;SDS011;64751;48.708;9.710;2022-11-13T12:26:04;2.50;;;1.98;;
76051;SDS011;64751;48.708;9.710;2022-11-13T12:29:03;2.47;;;1.85;;
76051;SDS011;64751;48.708;9.710;2022-11-13T12:32:00;2.63;;;2.20;;
76051;SDS011;64751;48.708;9.710;2022-11-13T12:34:54;2.38;;;1.90;;
76051;SDS011;64751;48.708;9.710;2022-11-13T12:37:45;2.05;;;1.73;;
76051;SDS011;64751;48.708;9.710;2022-11-13T12:40:37;2.20;;;1.80;;
76051;SDS011;64751;48.708;9.710;2022-11-13T12:43:36;2.47;;;2.10;;
76051;SDS011;64751;48.708;9.710;2022-11-13T12:46:51;2.38;;;1.85;;
76051;SDS011;64751;48.708;9.710;2022-11-13T12:49:38;2.50;;;1.77;;
76051;SDS011;64751;48.708;9.710;2022-11-13T12:52:24;2.00;;;1.60;;
76051;SDS011;64751;48.708;9.710;2022-11-13T12:55:23;2.08;;;1.60;;
76051;SDS011;64751;48.708;9.710;2022-11-13T12:58:16;2.20;;;1.73;;
76051;SDS011;64751;48.708;9.710;2022-11-13T13:01:12;1.75;;;1.50;;
76051;SDS011;64751;48.708;9.710;2022-11-13T13:04:11;2.00;;;1.70;;
76051;SDS011;64751;48.708;9.710;2022-11-13T13:07:16;2.40;;;1.60;;
76051;SDS011;64751;48.708;9.710;2022-11-13T13:10:13;2.13;;;1.67;;
76051;SDS011;64751;48.708;9.710;2022-11-13T13:13:09;2.10;;;1.60;;
76051;SDS011;64751;48.708;9.710;2022-11-13T13:16:02;2.58;;;1.60;;
76051;SDS011;64751;48.708;9.710;2022-11-13T13:19:04;2.47;;;2.03;;
76051;SDS011;64751;48.708;9.710;2022-11-13T13:21:51;2.42;;;1.52;;
76051;SDS011;64751;48.708;9.710;2022-11-13T13:24:37;1.90;;;1.40;;
76051;SDS011;64751;48.708;9.710;2022-11-13T13:27:24;2.10;;;1.80;;
76051;SDS011;64751;48.708;9.710;2022-11-13T13:30:17;1.95;;;1.60;;
76051;SDS011;64751;48.708;9.710;2022-11-13T13:33:12;2.35;;;1.83;;
76051;SDS011;64751;48.708;9.710;2022-11-13T13:36:10;1.58;;;1.30;;
76051;SDS011;64751;48.708;9.710;2022-11-13T13:39:07;1.73;;;1.40;;
76051;SDS011;64751;48.708;9.710;2022-11-13T13:42:08;1.50;;;1.30;;
76051;SDS011;64751;48.708;9.710;2022-11-13T13:45:14;1.58;;;1.35;;
76051;SDS011;64751;48.708;9.710;2022-11-13T13:48:07;1.80;;;1.30;;
76051;SDS011;64751;48.708;9.710;2022-11-13T13:50:57;1.30;;;1.20;;
76051;SDS011;64751;48.708;9.710;2022-11-13T13:53:46;1.38;;;1.17;;
76051;SDS011;64751;48.708;9.710;2022-11-13T13:56:33;1.58;;;1.27;;
76051;SDS011;64751;48.708;9.710;2022-11-13T13:59:28;1.80;;;1.35;;
76051;SDS011;64751;48.708;9.710;2022-11-13T14:02:18;1.60;;;1.40;;
76051;SDS011;64751;48.708;9.710;2022-11-13T14:05:15;1.63;;;1.45;;
76051;SDS011;64751;48.708;9.710;2022-11-13T14:08:14;1.60;;;1.50;;
76051;SDS011;64751;48.708;9.710;2022-11-13T14:11:13;1.77;;;1.23;;
76051;SDS011;64751;48.708;9.710;2022-11-13T14:14:08;1.50;;;1.40;;
76051;SDS011;64751;48.708;9.710;2022-11-13T14:16:57;1.73;;;1.35;;
76051;SDS011;64751;48.708;9.710;2022-11-13T14:19:47;1.60;;;1.40;;
76051;SDS011;64751;48.708;9.710;2022-11-13T14:22:34;2.15;;;1.55;;
76051;SDS011;64751;48.708;9.710;2022-11-13T14:25:22;1.98;;;1.55;;
76051;SDS011;64751;48.708;9.710;2022-11-13T14:28:14;1.70;;;1.40;;
76051;SDS011;64751;48.708;9.710;2022-11-13T14:31:02;1.92;;;1.63;;
76051;SDS011;64751;48.708;9.710;2022-11-13T14:33:49;1.83;;;1.40;;
76051;SDS011;64751;48.708;9.710;2022-11-13T14:36:36;2.17;;;1.40;;
76051;SDS011;64751;48.708;9.710;2022-11-13T14:39:25;1.98;;;1.45;;
76051;SDS011;64751;48.708;9.710;2022-11-13T14:42:15;1.70;;;1.40;;
76051;SDS011;64751;48.708;9.710;2022-11-13T14:45:16;1.98;;;1.33;;
76051;SDS011;64751;48.708;9.710;2022-11-13T14:48:15;1.60;;;1.33;;
76051;SDS011;64751;48.708;9.710;2022-11-13T14:51:03;1.83;;;1.40;;
76051;SDS011;64751;48.708;9.710;2022-11-13T14:53:57;2.42;;;1.58;;
76051;SDS011;64751;48.708;9.710;2022-11-13T14:56:44;2.05;;;1.70;;
76051;SDS011;64751;48.708;9.710;2022-11-13T14:59:30;1.63;;;1.27;;
76051;SDS011;64751;48.708;9.710;2022-11-13T15:02:18;1.60;;;1.30;;
76051;SDS011;64751;48.708;9.710;2022-11-13T15:05:04;1.67;;;1.33;;
76051;SDS011;64751;48.708;9.710;2022-11-13T15:07:50;1.52;;;1.30;;
76051;SDS011;64751;48.708;9.710;2022-11-13T15:10:37;1.92;;;1.60;;
76051;SDS011;64751;48.708;9.710;2022-11-13T15:13:24;1.73;;;1.50;;
76051;SDS011;64751;48.708;9.710;2022-11-13T15:16:11;1.90;;;1.60;;
76051;SDS011;64751;48.708;9.710;2022-11-13T15:19:02;2.00;;;1.80;;
76051;SDS011;64751;48.708;9.710;2022-11-13T15:21:50;1.90;;;1.50;;
76051;SDS011;64751;48.708;9.710;2022-11-13T15:24:36;1.95;;;1.70;;
76051;SDS011;64751;48.708;9.710;2022-11-13T15:27:25;2.20;;;1.63;;
76051;SDS011;64751;48.708;9.710;2022-11-13T15:30:12;2.40;;;2.10;;
76051;SDS011;64751;48.708;9.710;2022-11-13T15:32:58;2.20;;;1.83;;
76051;SDS011;64751;48.708;9.710;2022-11-13T15:35:51;1.92;;;1.70;;
76051;SDS011;64751;48.708;9.710;2022-11-13T15:38:38;2.50;;;1.90;;
76051;SDS011;64751;48.708;9.710;2022-11-13T15:41:26;2.25;;;1.75;;
76051;SDS011;64751;48.708;9.710;2022-11-13T15:44:14;2.63;;;1.90;;
76051;SDS011;64751;48.708;9.710;2022-11-13T15:47:00;2.20;;;2.00;;
76051;SDS011;64751;48.708;9.710;2022-11-13T15:49:47;2.20;;;1.80;;
76051;SDS011;64751;48.708;9.710;2022-11-13T15:52:36;2.00;;;1.73;;
76051;SDS011;64751;48.708;9.710;2022-11-13T15:58:12;3.33;;;2.80;;
76051;SDS011;64751;48.708;9.710;2022-11-13T16:01:00;3.40;;;2.50;;
76051;SDS011;64751;48.708;9.710;2022-11-13T16:03:46;3.20;;;2.67;;
76051;SDS011;64751;48.708;9.710;2022-11-13T16:06:35;3.35;;;2.70;;
76051;SDS011;64751;48.708;9.710;2022-11-13T16:09:23;4.35;;;2.40;;
76051;SDS011;64751;48.708;9.710;2022-11-13T16:12:12;3.05;;;2.50;;
76051;SDS011;64751;48.708;9.710;2022-11-13T16:14:59;3.20;;;2.90;;
76051;SDS011;64751;48.708;9.710;2022-11-13T16:17:47;2.92;;;2.58;;
76051;SDS011;64751;48.708;9.710;2022-11-13T16:20:34;3.08;;;2.60;;
76051;SDS011;64751;48.708;9.710;2022-11-13T16:23:21;3.22;;;2.53;;
76051;SDS011;64751;48.708;9.710;2022-11-13T16:26:11;2.97;;;2.38;;
76051;SDS011;64751;48.708;9.710;2022-11-13T16:28:58;3.08;;;2.65;;
76051;SDS011;64751;48.708;9.710;2022-11-13T16:31:45;2.83;;;2.53;;
76051;SDS011;64751;48.708;9.710;2022-11-13T16:34:31;2.80;;;2.13;;
76051;SDS011;64751;48.708;9.710;2022-11-13T16:37:18;2.63;;;2.40;;
76051;SDS011;64751;48.708;9.710;2022-11-13T16:40:09;3.05;;;2.20;;
76051;SDS011;64751;48.708;9.710;2022-11-13T16:43:04;2.70;;;2.28;;
76051;SDS011;64751;48.708;9.710;2022-11-13T16:45:50;3.28;;;2.63;;
76051;SDS011;64751;48.708;9.710;2022-11-13T16:48:37;3.33;;;3.03;;
76051;SDS011;64751;48.708;9.710;2022-11-13T16:51:25;3.40;;;3.08;;
76051;SDS011;64751;48.708;9.710;2022-11-13T16:54:12;3.03;;;2.72;;
76051;SDS011;64751;48.708;9.710;2022-11-13T16:57:03;3.30;;;2.53;;
76051;SDS011;64751;48.708;9.710;2022-11-13T16:59:51;3.10;;;2.72;;
76051;SDS011;64751;48.708;9.710;2022-11-13T17:02:36;3.13;;;2.80;;